createdAt,value
2022-08-12T00:02:04.363Z,3.20
2022-08-12T00:04:52.547Z,2.70
2022-08-12T00:07:39.104Z,2.83
2022-08-12T00:10:26.045Z,2.73
2022-08-12T00:13:12.670Z,3.00
2022-08-12T00:16:01.885Z,3.10
2022-08-12T00:18:50.145Z,2.80
2022-08-12T00:21:37.307Z,2.70
2022-08-12T00:24:24.930Z,2.73
2022-08-12T00:27:11.388Z,2.53
2022-08-12T00:29:58.235Z,3.00
2022-08-12T00:32:56.848Z,2.67
2022-08-12T00:35:45.016Z,2.67
2022-08-12T00:38:32.311Z,2.93
2022-08-12T00:41:18.872Z,2.93
2022-08-12T00:43:49.673Z,2.70
2022-08-12T00:46:33.331Z,2.60
2022-08-12T00:49:03.371Z,2.90
2022-08-12T00:51:48.108Z,2.30
2022-08-12T00:54:17.509Z,2.83
2022-08-12T00:56:49.850Z,2.43
2022-08-12T00:59:19.050Z,2.23
2022-08-12T01:02:02.293Z,2.77
2022-08-12T01:04:58.229Z,3.07
2022-08-12T01:07:46.290Z,2.80
2022-08-12T01:10:33.916Z,2.60
2022-08-12T01:13:18.482Z,2.50
2022-08-12T01:15:52.038Z,2.40
2022-08-12T01:18:22.032Z,2.63
2022-08-12T01:20:58.826Z,2.70
2022-08-12T01:23:41.975Z,2.80
2022-08-12T01:26:17.723Z,2.27
2022-08-12T01:28:48.527Z,2.70
2022-08-12T01:31:21.281Z,2.03
2022-08-12T01:34:03.046Z,2.47
2022-08-12T01:36:38.553Z,2.47
2022-08-12T01:39:07.281Z,2.83
2022-08-12T01:41:41.100Z,2.37
2022-08-12T01:44:11.055Z,2.47
2022-08-12T01:46:51.585Z,2.67
2022-08-12T01:49:49.428Z,3.07
2022-08-12T01:52:28.738Z,2.20
2022-08-12T01:54:58.627Z,2.60
2022-08-12T01:57:58.588Z,2.37
2022-08-12T02:00:43.234Z,2.73
2022-08-12T02:03:24.205Z,3.07
2022-08-12T02:06:17.788Z,3.00
2022-08-12T02:09:06.983Z,3.27
2022-08-12T02:11:37.664Z,2.70
2022-08-12T02:14:23.369Z,2.33
2022-08-12T02:17:00.247Z,2.70
2022-08-12T02:19:46.875Z,2.77
2022-08-12T02:22:29.733Z,2.57
2022-08-12T02:25:03.090Z,2.77
2022-08-12T02:27:35.937Z,2.27
2022-08-12T02:30:08.841Z,2.40
2022-08-12T02:32:40.555Z,2.57
2022-08-12T02:35:12.122Z,2.83
2022-08-12T02:37:41.523Z,2.70
2022-08-12T02:40:13.030Z,2.83
2022-08-12T02:42:54.885Z,3.00
2022-08-12T02:45:33.309Z,2.83
2022-08-12T02:48:07.946Z,2.87
2022-08-12T02:50:42.136Z,3.40
2022-08-12T02:53:12.970Z,3.30
2022-08-12T02:55:42.314Z,2.80
2022-08-12T02:58:12.387Z,3.23
2022-08-12T03:00:45.429Z,2.83
2022-08-12T03:03:15.415Z,2.80
2022-08-12T03:05:50.905Z,2.10
2022-08-12T03:08:32.496Z,2.40
2022-08-12T03:11:12.042Z,2.73
2022-08-12T03:13:47.653Z,2.43
2022-08-12T03:16:18.199Z,2.40
2022-08-12T03:18:47.159Z,3.13
2022-08-12T03:21:58.011Z,2.77
2022-08-12T03:24:09.139Z,2.60
2022-08-12T03:26:38.433Z,2.70
2022-08-12T03:29:08.126Z,2.37
2022-08-12T03:31:38.226Z,2.30
2022-08-12T03:34:11.522Z,2.60
2022-08-12T03:36:42.364Z,2.50
2022-08-12T03:39:36.320Z,2.43
2022-08-12T03:42:13.596Z,2.67
2022-08-12T03:45:07.737Z,2.87
2022-08-12T03:48:05.168Z,3.10
2022-08-12T03:50:51.966Z,2.40
2022-08-12T03:53:44.292Z,2.77
2022-08-12T03:56:30.989Z,2.80
2022-08-12T03:59:18.983Z,2.37
2022-08-12T04:01:52.436Z,2.50
2022-08-12T04:04:23.692Z,2.53
2022-08-12T04:06:53.300Z,3.10
2022-08-12T04:09:23.196Z,3.47
2022-08-12T04:12:09.986Z,3.30
2022-08-12T04:14:40.380Z,3.30
2022-08-12T04:17:09.377Z,3.30
2022-08-12T04:19:40.054Z,2.77
2022-08-12T04:22:09.868Z,2.87
2022-08-12T04:24:40.752Z,2.63
2022-08-12T04:27:12.207Z,2.63
2022-08-12T04:30:32.969Z,2.90
2022-08-12T04:32:30.109Z,2.50
2022-08-12T04:35:00.490Z,2.87
2022-08-12T04:37:29.453Z,2.83
2022-08-12T04:40:27.928Z,2.60
2022-08-12T04:42:57.612Z,2.77
2022-08-12T04:45:26.434Z,2.90
2022-08-12T04:47:55.378Z,3.13
2022-08-12T04:50:35.058Z,3.10
2022-08-12T04:53:06.980Z,3.53
2022-08-12T04:55:38.728Z,2.90
2022-08-12T04:58:07.634Z,3.23
2022-08-12T05:00:37.879Z,3.27
2022-08-12T05:03:07.770Z,2.70
2022-08-12T05:05:38.971Z,3.20
2022-08-12T05:08:12.268Z,3.20
2022-08-12T05:10:40.957Z,2.70
2022-08-12T05:13:14.360Z,2.60
2022-08-12T05:16:02.624Z,3.20
2022-08-12T05:18:35.067Z,2.93
2022-08-12T05:21:10.238Z,3.63
2022-08-12T05:23:39.807Z,2.87
2022-08-12T05:26:08.680Z,2.70
2022-08-12T05:28:37.397Z,3.33
2022-08-12T05:31:06.687Z,3.20
2022-08-12T05:33:37.901Z,2.60
2022-08-12T05:36:08.652Z,3.17
2022-08-12T05:38:56.287Z,3.13
2022-08-12T05:41:25.380Z,3.60
2022-08-12T05:43:56.328Z,3.27
2022-08-12T05:46:26.471Z,3.53
2022-08-12T05:48:56.249Z,3.73
2022-08-12T05:51:40.591Z,3.40
2022-08-12T05:54:12.435Z,3.00
2022-08-12T05:56:42.006Z,2.60
2022-08-12T05:59:11.958Z,2.97
2022-08-12T06:02:09.383Z,3.73
2022-08-12T06:04:33.263Z,3.10
2022-08-12T06:07:02.746Z,3.30
2022-08-12T06:09:52.923Z,3.60
2022-08-12T06:12:23.386Z,4.40
2022-08-12T06:14:55.090Z,3.80
2022-08-12T06:17:24.088Z,4.23
2022-08-12T06:20:27.772Z,5.07
2022-08-12T06:22:43.892Z,4.30
2022-08-12T06:25:22.168Z,5.47
2022-08-12T06:28:07.472Z,5.17
2022-08-12T06:30:39.151Z,6.70
2022-08-12T06:33:22.162Z,5.03
2022-08-12T06:35:52.106Z,6.70
2022-08-12T06:38:27.652Z,5.90
2022-08-12T06:41:18.066Z,5.93
2022-08-12T06:44:06.573Z,5.50
2022-08-12T06:46:38.682Z,5.67
2022-08-12T06:49:08.657Z,5.53
2022-08-12T06:51:37.499Z,4.53
2022-08-12T06:54:07.199Z,3.07
2022-08-12T06:57:03.079Z,2.90
2022-08-12T06:59:26.444Z,3.20
2022-08-12T07:01:55.957Z,3.13
2022-08-12T07:04:40.302Z,3.00
2022-08-12T07:07:10.711Z,3.00
2022-08-12T07:10:06.762Z,2.30
2022-08-12T07:12:32.758Z,2.43
2022-08-12T07:15:02.454Z,2.63
2022-08-12T07:17:36.183Z,2.43
2022-08-12T07:20:06.329Z,2.33
2022-08-12T07:22:35.226Z,1.90
2022-08-12T07:25:30.235Z,2.37
2022-08-12T07:28:16.214Z,1.90
2022-08-12T07:30:48.450Z,1.70
2022-08-12T07:33:19.125Z,1.93
2022-08-12T07:35:48.513Z,1.70
2022-08-12T07:38:29.072Z,2.00
2022-08-12T07:41:03.146Z,2.30
2022-08-12T07:43:42.026Z,2.17
2022-08-12T07:46:15.102Z,2.00
2022-08-12T07:48:46.703Z,2.03
2022-08-12T07:51:24.931Z,2.20
2022-08-12T07:54:01.080Z,1.87
2022-08-12T07:56:32.892Z,2.57
2022-08-12T07:59:03.716Z,1.80
2022-08-12T08:01:33.769Z,1.83
2022-08-12T08:04:22.467Z,2.10
2022-08-12T08:06:51.915Z,1.90
2022-08-12T08:09:23.206Z,2.20
2022-08-12T08:12:10.154Z,1.73
2022-08-12T08:14:52.002Z,2.47
2022-08-12T08:17:20.910Z,2.03
2022-08-12T08:20:02.503Z,1.90
2022-08-12T08:22:42.039Z,1.70
2022-08-12T08:25:20.438Z,2.13
2022-08-12T08:28:03.726Z,1.83
2022-08-12T08:30:34.421Z,2.00
2022-08-12T08:33:15.528Z,1.83
2022-08-12T08:35:54.468Z,2.00
2022-08-12T08:38:33.086Z,1.70
2022-08-12T08:42:17.446Z,1.93
2022-08-12T08:44:12.091Z,1.90
2022-08-12T08:46:44.454Z,1.70
2022-08-12T08:49:14.177Z,1.93
2022-08-12T08:51:43.243Z,1.40
2022-08-12T08:54:13.176Z,1.53
2022-08-12T08:56:46.387Z,1.80
2022-08-12T08:59:15.262Z,1.77
2022-08-12T09:01:45.442Z,1.87
2022-08-12T09:05:10.074Z,2.00
2022-08-12T09:07:17.373Z,1.70
2022-08-12T09:10:02.914Z,1.60
2022-08-12T09:18:33.551Z,1.90
2022-08-12T09:21:03.836Z,2.00
2022-08-12T09:23:58.864Z,1.40
2022-08-12T09:26:28.091Z,1.43
2022-08-12T09:28:57.372Z,1.90
2022-08-12T09:32:04.338Z,1.70
2022-08-12T09:34:28.680Z,2.00
2022-08-12T09:37:20.159Z,1.80
2022-08-12T09:40:06.399Z,1.70
2022-08-12T09:43:17.089Z,1.40
2022-08-12T09:46:11.712Z,1.93
2022-08-12T09:48:40.167Z,1.60
2022-08-12T09:51:21.928Z,1.83
2022-08-12T09:54:05.650Z,1.80
2022-08-12T09:57:00.738Z,2.30
2022-08-12T10:00:16.221Z,2.00
2022-08-12T10:02:45.377Z,1.43
2022-08-12T10:05:13.678Z,1.77
2022-08-12T10:07:44.234Z,1.57
2022-08-12T10:10:23.827Z,2.00
2022-08-12T10:13:35.270Z,1.43
2022-08-12T10:16:06.282Z,1.70
2022-08-12T10:18:51.550Z,1.80
2022-08-12T10:21:36.009Z,1.80
2022-08-12T10:24:09.269Z,1.50
2022-08-12T10:26:56.831Z,1.30
2022-08-12T10:30:38.394Z,1.73
2022-08-12T10:32:44.979Z,1.67
2022-08-12T10:35:16.748Z,1.40
2022-08-12T10:38:34.468Z,1.70
2022-08-12T10:40:58.606Z,1.97
2022-08-12T10:43:55.684Z,1.70
2022-08-12T10:46:31.341Z,1.40
2022-08-12T10:49:06.340Z,1.87
2022-08-12T10:52:05.463Z,1.23
2022-08-12T10:54:46.220Z,1.87
2022-08-12T10:58:13.424Z,1.40
2022-08-12T11:00:34.376Z,1.53
2022-08-12T11:04:26.563Z,1.40
2022-08-12T11:07:07.541Z,1.37
2022-08-12T11:08:41.888Z,1.50
2022-08-12T11:11:16.767Z,2.17
2022-08-12T11:13:49.054Z,2.00
2022-08-12T11:16:21.798Z,1.80
2022-08-12T11:18:55.271Z,2.10
2022-08-12T11:21:31.081Z,1.73
2022-08-12T11:24:29.977Z,1.77
2022-08-12T11:27:01.832Z,1.40
2022-08-12T11:30:00.526Z,1.30
2022-08-12T11:32:27.605Z,1.30
2022-08-12T11:34:59.297Z,1.37
2022-08-12T11:37:28.328Z,1.50
2022-08-12T11:42:39.625Z,1.23
2022-08-12T11:45:11.449Z,1.40
2022-08-12T11:47:40.607Z,1.50
2022-08-12T11:50:11.856Z,1.20
2022-08-12T11:52:55.291Z,1.60
2022-08-12T11:55:27.519Z,1.70
2022-08-12T11:58:27.935Z,1.30
2022-08-12T12:03:43.868Z,1.30
2022-08-12T12:06:16.931Z,1.50
2022-08-12T12:08:50.970Z,1.80
2022-08-12T12:11:22.317Z,1.70
2022-08-12T12:14:08.176Z,1.40
2022-08-12T12:16:42.054Z,1.40
2022-08-12T12:19:17.730Z,1.73
2022-08-12T12:21:49.439Z,1.43
2022-08-12T12:24:21.237Z,1.80
2022-08-12T12:26:59.732Z,1.80
2022-08-12T12:30:13.549Z,1.70
2022-08-12T12:32:31.964Z,1.60
2022-08-12T12:35:44.305Z,1.70
2022-08-12T12:37:59.018Z,1.40
2022-08-12T12:40:35.723Z,1.50
2022-08-12T12:43:10.684Z,1.53
2022-08-12T12:45:44.593Z,1.70
2022-08-12T12:48:18.471Z,1.60
2022-08-12T12:50:51.355Z,1.30
2022-08-12T12:54:06.187Z,1.50
2022-08-12T12:56:15.842Z,1.80
2022-08-12T12:58:44.858Z,1.80
2022-08-12T13:01:25.384Z,1.80
2022-08-12T13:04:01.906Z,1.50
2022-08-12T13:06:32.451Z,1.37
2022-08-12T13:09:03.885Z,1.43
2022-08-12T13:11:41.144Z,1.60
2022-08-12T13:14:27.703Z,1.57
2022-08-12T13:17:02.426Z,1.20
2022-08-12T13:19:43.471Z,1.70
2022-08-12T13:22:18.620Z,1.97
2022-08-12T13:24:55.092Z,1.40
2022-08-12T13:27:35.360Z,1.50
2022-08-12T13:30:11.063Z,1.90
2022-08-12T13:32:42.405Z,1.30
2022-08-12T13:35:19.226Z,1.37
2022-08-12T13:37:55.116Z,1.70
2022-08-12T13:40:26.499Z,1.40
2022-08-12T13:42:57.861Z,1.77
2022-08-12T13:45:29.185Z,1.50
2022-08-12T13:47:59.971Z,1.83
2022-08-12T13:50:33.000Z,1.57
2022-08-12T13:53:06.319Z,1.23
2022-08-12T13:56:01.371Z,1.50
2022-08-12T13:58:32.967Z,1.73
2022-08-12T14:01:08.973Z,1.30
2022-08-12T14:03:51.226Z,1.40
2022-08-12T14:06:26.012Z,1.30
2022-08-12T14:08:59.757Z,1.40
2022-08-12T14:11:51.213Z,1.60
2022-08-12T14:14:31.394Z,1.50
2022-08-12T14:17:09.911Z,1.33
2022-08-12T14:20:00.615Z,1.40
2022-08-12T14:22:32.067Z,1.60
2022-08-12T14:25:02.442Z,1.57
2022-08-12T14:28:02.541Z,1.20
2022-08-12T14:30:24.154Z,1.10
2022-08-12T14:33:02.915Z,1.57
2022-08-12T14:35:41.330Z,1.30
2022-08-12T14:38:26.343Z,1.50
2022-08-12T14:40:57.751Z,1.20
2022-08-12T14:43:31.447Z,1.10
2022-08-12T14:46:15.552Z,1.10
2022-08-12T14:48:46.290Z,1.20
2022-08-12T14:52:43.425Z,1.00
2022-08-12T14:58:00.491Z,1.13
2022-08-12T15:00:12.587Z,1.30
2022-08-12T15:02:41.524Z,1.20
2022-08-12T15:05:10.347Z,1.37
2022-08-12T15:08:04.945Z,1.50
2022-08-12T15:10:38.025Z,1.47
2022-08-12T15:13:08.280Z,1.40
2022-08-12T15:15:43.686Z,1.17
2022-08-12T15:18:21.549Z,1.20
2022-08-12T15:20:51.954Z,1.10
2022-08-12T15:23:22.820Z,1.20
2022-08-12T15:26:03.019Z,1.50
2022-08-12T15:28:34.704Z,1.50
2022-08-12T15:31:09.613Z,1.30
2022-08-12T15:33:51.054Z,1.00
2022-08-12T15:36:50.238Z,1.23
2022-08-12T15:39:17.109Z,1.60
2022-08-12T15:41:49.244Z,1.47
2022-08-12T15:44:38.636Z,1.23
2022-08-12T15:47:10.206Z,1.00
2022-08-12T15:49:55.139Z,1.40
2022-08-12T15:52:30.013Z,1.37
2022-08-12T15:55:06.200Z,1.20
2022-08-12T15:57:50.446Z,1.27
2022-08-12T16:00:33.394Z,1.20
2022-08-12T16:03:05.426Z,1.30
2022-08-12T16:06:12.268Z,1.20
2022-08-12T16:08:27.362Z,1.50
2022-08-12T16:10:57.590Z,1.03
2022-08-12T16:13:34.140Z,1.20
2022-08-12T16:16:21.709Z,1.47
2022-08-12T16:19:02.111Z,1.10
2022-08-12T16:21:50.272Z,1.20
2022-08-12T16:24:22.067Z,1.10
2022-08-12T16:26:51.531Z,1.10
2022-08-12T16:29:52.040Z,1.30
2022-08-12T16:32:24.231Z,1.10
2022-08-12T16:35:00.840Z,1.27
2022-08-12T16:38:25.528Z,1.20
2022-08-12T16:40:23.558Z,1.00
2022-08-12T16:42:53.886Z,1.50
2022-08-12T16:46:04.411Z,1.10
2022-08-12T16:48:35.001Z,1.20
2022-08-12T16:51:09.408Z,1.20
2022-08-12T16:53:44.192Z,1.00
2022-08-12T16:56:15.254Z,1.03
2022-08-12T16:58:44.323Z,0.90
2022-08-12T17:01:15.725Z,1.00
2022-08-12T17:03:46.988Z,0.97
2022-08-12T17:06:27.781Z,0.90
2022-08-12T17:09:02.744Z,0.90
2022-08-12T17:11:31.956Z,1.50
2022-08-12T17:14:01.760Z,0.90
2022-08-12T17:16:37.839Z,1.20
2022-08-12T17:19:09.279Z,1.27
2022-08-12T17:21:41.786Z,1.40
2022-08-12T17:24:30.655Z,0.90
2022-08-12T17:27:00.654Z,1.00
2022-08-12T17:30:01.432Z,1.00
2022-08-12T17:32:28.130Z,0.80
2022-08-12T17:35:14.803Z,0.77
2022-08-12T17:37:44.615Z,0.70
2022-08-12T17:40:35.306Z,1.00
2022-08-12T17:43:04.649Z,1.00
2022-08-12T17:45:55.990Z,0.90
2022-08-12T17:48:34.719Z,1.00
2022-08-12T17:51:06.888Z,0.87
2022-08-12T17:54:06.199Z,1.10
2022-08-12T17:56:32.046Z,0.87
2022-08-12T17:59:01.681Z,0.90
2022-08-12T18:01:34.723Z,1.00
2022-08-12T18:04:22.413Z,1.00
2022-08-12T18:06:52.530Z,1.20
2022-08-12T18:09:21.978Z,1.10
2022-08-12T18:12:11.897Z,1.00
2022-08-12T18:14:41.518Z,0.90
2022-08-12T18:17:17.802Z,1.40
2022-08-12T18:20:05.908Z,1.70
2022-08-12T18:22:38.483Z,1.40
2022-08-12T18:25:24.958Z,1.00
2022-08-12T18:28:02.057Z,1.00
2022-08-12T18:30:52.738Z,1.00
2022-08-12T18:33:25.480Z,1.20
2022-08-12T18:35:57.142Z,1.37
2022-08-12T18:38:28.003Z,1.30
2022-08-12T18:41:21.017Z,1.20
2022-08-12T18:44:00.279Z,1.10
2022-08-12T18:46:38.412Z,1.50
2022-08-12T18:49:17.262Z,1.93
2022-08-12T18:51:54.731Z,1.70
2022-08-12T18:54:26.726Z,2.97
2022-08-12T18:56:57.844Z,2.10
2022-08-12T19:00:00.213Z,1.47
2022-08-12T19:02:22.549Z,1.70
2022-08-12T19:04:53.358Z,2.00
2022-08-12T19:07:29.538Z,2.00
2022-08-12T19:10:14.998Z,1.30
2022-08-12T19:13:01.278Z,1.00
2022-08-12T19:15:30.439Z,1.33
2022-08-12T19:18:02.667Z,1.10
2022-08-12T19:20:34.038Z,1.03
2022-08-12T19:23:16.095Z,0.90
2022-08-12T19:26:00.754Z,1.20
2022-08-12T19:28:34.674Z,1.30
2022-08-12T19:31:45.062Z,1.13
2022-08-12T19:34:56.511Z,1.40
2022-08-12T19:37:22.939Z,1.13
2022-08-12T19:40:09.629Z,1.27
2022-08-12T19:42:53.329Z,1.10
2022-08-12T19:45:23.114Z,1.30
2022-08-12T19:47:52.468Z,1.30
2022-08-12T19:50:21.180Z,1.43
2022-08-12T19:52:51.080Z,1.40
2022-08-12T19:55:22.214Z,1.20
2022-08-12T19:58:02.507Z,1.20
2022-08-12T20:00:34.943Z,1.40
2022-08-12T20:03:06.121Z,1.40
2022-08-12T20:06:06.434Z,1.40
2022-08-12T20:08:34.415Z,1.17
2022-08-12T20:12:09.217Z,1.17
2022-08-12T20:14:00.206Z,1.30
2022-08-12T20:19:53.013Z,1.70
2022-08-12T20:22:24.854Z,1.40
2022-08-12T20:25:00.963Z,1.40
2022-08-12T20:28:04.103Z,1.50
2022-08-12T20:30:37.567Z,1.20
2022-08-12T20:33:18.392Z,1.20
2022-08-12T20:36:13.424Z,1.17
2022-08-12T20:38:40.291Z,1.20
2022-08-12T20:41:17.767Z,1.53
2022-08-12T20:43:51.853Z,1.40
2022-08-12T20:46:21.496Z,1.40
2022-08-12T20:48:54.845Z,1.33
2022-08-12T20:51:28.150Z,1.70
2022-08-12T20:54:18.384Z,1.30
2022-08-12T20:56:47.150Z,1.53
2022-08-12T20:59:20.278Z,1.30
2022-08-12T21:01:54.042Z,1.43
2022-08-12T21:04:52.259Z,1.23
2022-08-12T21:07:23.554Z,1.73
2022-08-12T21:09:53.113Z,1.17
2022-08-12T21:12:27.718Z,1.83
2022-08-12T21:15:22.975Z,1.50
2022-08-12T21:18:08.136Z,1.40
2022-08-12T21:20:48.561Z,1.60
2022-08-12T21:23:18.917Z,1.60
2022-08-12T21:25:48.227Z,1.47
2022-08-12T21:28:27.506Z,1.50
2022-08-12T21:32:34.276Z,1.33
2022-08-12T21:34:07.343Z,1.40
2022-08-12T21:36:40.248Z,1.43
2022-08-12T21:39:20.446Z,1.60
2022-08-12T21:41:53.112Z,1.60
2022-08-12T21:44:43.022Z,1.70
2022-08-12T21:47:21.427Z,1.90
2022-08-12T21:50:03.102Z,1.53
2022-08-12T21:52:37.370Z,1.40
2022-08-12T21:55:18.810Z,1.50
2022-08-12T21:57:53.880Z,1.40
2022-08-12T22:00:32.804Z,1.90
2022-08-12T22:04:01.756Z,1.67
2022-08-12T22:06:30.383Z,1.60
2022-08-12T22:09:02.655Z,1.50
2022-08-12T22:11:41.876Z,1.47
2022-08-12T22:14:21.989Z,2.23
2022-08-12T22:16:54.429Z,1.70
2022-08-12T22:19:24.634Z,1.83
2022-08-12T22:21:55.849Z,1.90
2022-08-12T22:24:26.468Z,1.60
2022-08-12T22:27:07.931Z,1.77
2022-08-12T22:30:06.915Z,1.80
2022-08-12T22:32:38.669Z,1.90
2022-08-12T22:35:29.268Z,1.77
2022-08-12T22:38:10.782Z,1.80
2022-08-12T22:40:40.942Z,1.90
2022-08-12T22:43:30.439Z,1.70
2022-08-12T22:46:16.965Z,1.80
2022-08-12T22:48:52.620Z,1.70
2022-08-12T22:51:24.048Z,1.53
2022-08-12T22:53:54.586Z,1.97
2022-08-12T22:56:30.793Z,1.67
2022-08-12T22:59:02.632Z,1.80
2022-08-12T23:01:52.204Z,1.80
2022-08-12T23:04:27.533Z,1.60
2022-08-12T23:07:05.618Z,1.83
2022-08-12T23:09:47.999Z,1.80
2022-08-12T23:12:46.534Z,2.10
2022-08-12T23:15:15.078Z,1.77
2022-08-12T23:17:45.824Z,1.60
2022-08-12T23:20:15.063Z,1.37
2022-08-12T23:23:09.176Z,1.70
2022-08-12T23:25:55.541Z,1.67
2022-08-12T23:28:40.056Z,1.60
2022-08-12T23:31:11.256Z,1.70
2022-08-12T23:34:01.640Z,1.87
2022-08-12T23:36:39.253Z,1.30
2022-08-12T23:40:13.433Z,1.50
2022-08-12T23:42:16.732Z,1.63
2022-08-12T23:44:47.217Z,1.70
2022-08-12T23:47:17.678Z,1.80
2022-08-12T23:49:58.182Z,1.80
2022-08-12T23:52:34.702Z,1.37
2022-08-12T23:55:23.161Z,1.50
2022-08-12T23:58:23.025Z,1.57
